Messages - map view · info · telemetry · weather · raw · status · beacons · messages · bulletins · browse · moving · my account
Callsign:
Show:

Loading message packets...

APRS messages are stored for 14 days. It is possible to search using wildcards (*?) after a prefix.

2019-05-20 06:55:29 EDT: G0RSQ>G4FKH: A,-98.2,-107.3,-108.9,B,-100.1,-101.8,-103.1,C,-104.9,-110,-111.6,D,-104.6,-106.2,-107.4,E,-110.9,-113.2,-114.4
2019-05-20 06:56:22 EDT: IZ3QTC-3>IZ3QTC-5: Test APRS1
2019-05-20 06:56:53 EDT: IZ3QTC-3>IZ3QTC-3: Test APRS1.1
2019-05-20 06:57:32 EDT: DB0LUH-1>LU1HVK-1: rejUISS54}
2019-05-20 06:57:42 EDT: VK2GJ-2>VK2GJ-7: Directs=VK2BWI-3 VK2AMW-1 VK2RHR-1 VK2LJ-9
2019-05-20 06:57:54 EDT: VK2GJ-6>VK2GJ-7: Directs=VK2AMW-1 VK2GJ-5
2019-05-20 06:58:39 EDT: SCLMWW>BOM_CANCL: 201600z,WIND,WA_MW012
2019-05-20 06:58:39 EDT: SCLMWW>BOMSCL: Cancellation of Wind Warning for coastal waters between
2019-05-20 06:58:39 EDT: SCLMWW>BOMSCL: Walpole and Bremer Bay for Monday
2019-05-20 06:58:49 EDT: MTHOOD>N7QME: hum 53 10 87
2019-05-20 06:59:00 EDT: LA9GHA-7>DB1NTO-2: PicoAPRS Check Update Version013
2019-05-20 06:59:01 EDT: DB1NTO-2>LA9GHA-7: Firmware update 014 available! Look at www.db1nto.de
2019-05-20 06:59:40 EDT: LA9GHA-7>DB1NTO-2: PicoAPRS Check Update Version013
2019-05-20 06:59:41 EDT: DB1NTO-2>LA9GHA-7: Firmware update 014 available! Look at www.db1nto.de
2019-05-20 07:00:25 EDT: AMASVR>NWS-WARN: 201145z,SVR_STORM,OKC007-139-TXC195-357
2019-05-20 07:00:25 EDT: AMASVR>NWS_WARN: 201145z,SVR_STORM,OKC007-139-TXC195-357
2019-05-20 07:00:42 EDT: VK2GJ-2>VK2GJ-7: Directs=VK2AMW-1 VK2RHR-1 VK2LJ-9
2019-05-20 07:00:48 EDT: HS9QYG>HS9QYG: UNI
2019-05-20 07:00:49 EDT: BD7LM-9>BG7LMM-7: 1234567890
2019-05-20 07:00:52 EDT: HB9EMQ-9>HB9EMQ-7: test
2019-05-20 07:00:56 EDT: 7M3DZI-7>JO1KXP-9: Ge
2019-05-20 07:00:58 EDT: HS9QYG>HS9QYG: EQN
2019-05-20 07:01:01 EDT: OH4KA-8>DB1NTO-2: PicoAPRS Check Update Version008
2019-05-20 07:01:02 EDT: DB1NTO-2>OH4KA-8: Firmware update 014 available! Look at www.db1nto.de
2019-05-20 07:01:07 EDT: SHLBTP>SHLBTP: Info - Cabinet Temp = 73.2F Vcc = 13.6V
2019-05-20 07:01:09 EDT: IZ6RDB>OE5DRP: Unattended station, please provide your email address to get a repl
2019-05-20 07:01:53 EDT: OH4KA-8>DB1NTO-2: PicoAPRS Check Update Version008
2019-05-20 07:01:54 EDT: DB1NTO-2>OH4KA-8: Firmware update 014 available! Look at www.db1nto.de
2019-05-20 07:01:56 EDT: OE1ACM-18>OE1ACM-29: No GPS-Fix Batt=0.00V
2019-05-20 07:02:00 EDT: LA9GHA-7>DB1NTO-2: PicoAPRS Check Update Version013
2019-05-20 07:02:01 EDT: DB1NTO-2>LA9GHA-7: Firmware update 014 available! Look at www.db1nto.de
2019-05-20 07:02:05 EDT: DB0TS-10>DB0TS-9: T#001,000,000,000,000,000,00000000,Test
2019-05-20 07:02:28 EDT: KM4KAW-9>KM4KAW: SitRep: 10.50208 71.26f
2019-05-20 07:02:42 EDT: VK2GJ-2>VK2GJ-7: Directs=VK2AMW-1 VK2RHR-1
2019-05-20 07:02:54 EDT: VMWMWW>BOM_WARN: 201400z,WIND,VIC_MW001
2019-05-20 07:02:54 EDT: VMWMWW>BOMVMW: Strong Wind Warning for coastal waters between SA-VIC
2019-05-20 07:02:54 EDT: VMWMWW>BOMVMW: Border and Cape Otway for Monday
2019-05-20 07:02:54 EDT: VMWMWW>BOM_CANCL: 201400z,WIND,VIC_MW002-005
2019-05-20 07:02:54 EDT: VMWMWW>BOMVMW: Cancellation of Wind Warning for coastal waters between
2019-05-20 07:02:54 EDT: VMWMWW>BOMVMW: Cape Otway and Wilsons Promontory and for Port Phillip for
2019-05-20 07:02:54 EDT: VMWMWW>BOMVMW: Monday
2019-05-20 07:02:59 EDT: QMWMWW>BOM_WARN: 211400z,WIND,QLD_MW003>005
2019-05-20 07:02:59 EDT: QMWMWW>BOMQMW: Strong Wind Warning for coastal waters between Sharp Point
2019-05-20 07:02:59 EDT: QMWMWW>BOMQMW: and Cape Tribulation and for Torres Strait for Tuesday
2019-05-20 07:03:00 EDT: LA9GHA-7>DB1NTO-2: PicoAPRS Check Update Version013
2019-05-20 07:03:01 EDT: DB1NTO-2>LA9GHA-7: Firmware update 014 available! Look at www.db1nto.de
2019-05-20 07:03:01 EDT: TMWMWW>BOM_WARN: 211400z,WIND,TAS_MW006>008
2019-05-20 07:03:01 EDT: TMWMWW>BOMTMW: Strong Wind Warning for coastal waters between Tasman
2019-05-20 07:03:01 EDT: TMWMWW>BOMTMW: Island and Sandy Cape for Tuesday
2019-05-20 07:04:06 EDT: N7QME-15>N7QME: 13.14 it 59 h 54 t1 59 h 60 t2 55 h 69 o 53.0 0001 0110
< previous
FAQ · Blog · Discussion group · Linking to aprs.fi · AIS sites · Service status · Database statistics · Advertising on aprs.fi · Technical details · API · Change log · Planned changes · Credits and thanks · Terms Of Service · iPhone/iPad APRS